sensor_id;sensor_type;location;lat;lon;timestamp;temperature;humidity
5134;DHT22;2585;48.696;10.066;2022-11-21T00:01:21;3.80;95.00
5134;DHT22;2585;48.696;10.066;2022-11-21T00:03:49;3.70;95.00
5134;DHT22;2585;48.696;10.066;2022-11-21T00:06:16;3.70;95.00
5134;DHT22;2585;48.696;10.066;2022-11-21T00:08:44;3.80;95.00
5134;DHT22;2585;48.696;10.066;2022-11-21T00:11:11;3.80;95.00
5134;DHT22;2585;48.696;10.066;2022-11-21T00:13:38;3.80;95.00
5134;DHT22;2585;48.696;10.066;2022-11-21T00:16:15;3.80;95.00
5134;DHT22;2585;48.696;10.066;2022-11-21T00:18:42;3.80;94.90
5134;DHT22;2585;48.696;10.066;2022-11-21T00:21:14;3.80;94.90
5134;DHT22;2585;48.696;10.066;2022-11-21T00:23:42;3.80;94.90
5134;DHT22;2585;48.696;10.066;2022-11-21T00:26:10;3.80;94.90
5134;DHT22;2585;48.696;10.066;2022-11-21T00:28:38;3.80;94.90
5134;DHT22;2585;48.696;10.066;2022-11-21T00:31:05;3.80;94.90
5134;DHT22;2585;48.696;10.066;2022-11-21T00:33:34;3.80;94.90
5134;DHT22;2585;48.696;10.066;2022-11-21T00:36:06;3.80;94.90
5134;DHT22;2585;48.696;10.066;2022-11-21T00:38:33;3.80;94.90
5134;DHT22;2585;48.696;10.066;2022-11-21T00:41:00;3.80;94.90
5134;DHT22;2585;48.696;10.066;2022-11-21T00:43:27;3.90;94.90
5134;DHT22;2585;48.696;10.066;2022-11-21T00:45:54;3.80;94.90
5134;DHT22;2585;48.696;10.066;2022-11-21T00:48:21;3.80;94.90
5134;DHT22;2585;48.696;10.066;2022-11-21T00:50:48;3.80;95.00
5134;DHT22;2585;48.696;10.066;2022-11-21T00:53:15;3.80;95.00
5134;DHT22;2585;48.696;10.066;2022-11-21T00:55:42;3.80;95.00
5134;DHT22;2585;48.696;10.066;2022-11-21T00:58:08;3.80;95.00
5134;DHT22;2585;48.696;10.066;2022-11-21T01:00:35;3.80;95.00
5134;DHT22;2585;48.696;10.066;2022-11-21T01:03:02;3.80;95.00
5134;DHT22;2585;48.696;10.066;2022-11-21T01:05:31;3.70;95.00
5134;DHT22;2585;48.696;10.066;2022-11-21T01:07:58;3.70;95.00
5134;DHT22;2585;48.696;10.066;2022-11-21T01:10:25;3.80;95.00
5134;DHT22;2585;48.696;10.066;2022-11-21T01:12:52;3.80;95.00
5134;DHT22;2585;48.696;10.066;2022-11-21T01:15:18;3.80;95.00
5134;DHT22;2585;48.696;10.066;2022-11-21T01:17:45;3.80;95.00
5134;DHT22;2585;48.696;10.066;2022-11-21T01:20:12;3.80;95.00
5134;DHT22;2585;48.696;10.066;2022-11-21T01:22:39;3.80;95.00
5134;DHT22;2585;48.696;10.066;2022-11-21T01:25:06;3.80;95.00
5134;DHT22;2585;48.696;10.066;2022-11-21T01:27:33;3.80;95.00
5134;DHT22;2585;48.696;10.066;2022-11-21T01:30:00;3.80;95.00
5134;DHT22;2585;48.696;10.066;2022-11-21T01:32:26;3.80;95.10
5134;DHT22;2585;48.696;10.066;2022-11-21T01:34:53;3.70;95.10
5134;DHT22;2585;48.696;10.066;2022-11-21T01:37:20;3.80;95.10
5134;DHT22;2585;48.696;10.066;2022-11-21T01:39:47;3.80;95.20
5134;DHT22;2585;48.696;10.066;2022-11-21T01:42:13;3.80;95.20
5134;DHT22;2585;48.696;10.066;2022-11-21T01:44:58;3.80;95.20
5134;DHT22;2585;48.696;10.066;2022-11-21T01:47:26;3.80;95.20
5134;DHT22;2585;48.696;10.066;2022-11-21T01:49:52;3.80;95.20
5134;DHT22;2585;48.696;10.066;2022-11-21T01:52:23;3.80;95.20
5134;DHT22;2585;48.696;10.066;2022-11-21T01:55:00;3.80;95.20
5134;DHT22;2585;48.696;10.066;2022-11-21T01:57:34;3.80;95.20
5134;DHT22;2585;48.696;10.066;2022-11-21T02:02:36;3.80;95.20
5134;DHT22;2585;48.696;10.066;2022-11-21T02:05:06;3.80;95.20
5134;DHT22;2585;48.696;10.066;2022-11-21T02:07:38;3.80;95.20
5134;DHT22;2585;48.696;10.066;2022-11-21T02:10:08;3.80;95.20
5134;DHT22;2585;48.696;10.066;2022-11-21T02:15:06;3.80;95.20
5134;DHT22;2585;48.696;10.066;2022-11-21T02:17:33;3.80;95.20
5134;DHT22;2585;48.696;10.066;2022-11-21T02:20:10;3.80;95.20
5134;DHT22;2585;48.696;10.066;2022-11-21T02:27:35;3.90;95.30
5134;DHT22;2585;48.696;10.066;2022-11-21T02:30:04;3.80;95.20
5134;DHT22;2585;48.696;10.066;2022-11-21T02:32:34;3.80;95.20
5134;DHT22;2585;48.696;10.066;2022-11-21T02:35:02;3.70;95.20
5134;DHT22;2585;48.696;10.066;2022-11-21T02:37:30;3.80;95.20
5134;DHT22;2585;48.696;10.066;2022-11-21T02:40:00;3.70;95.20
5134;DHT22;2585;48.696;10.066;2022-11-21T02:42:41;3.70;95.20
5134;DHT22;2585;48.696;10.066;2022-11-21T02:45:19;3.70;95.20
5134;DHT22;2585;48.696;10.066;2022-11-21T02:47:48;3.60;95.20
5134;DHT22;2585;48.696;10.066;2022-11-21T02:50:24;3.50;95.10
5134;DHT22;2585;48.696;10.066;2022-11-21T02:52:52;3.50;95.10
5134;DHT22;2585;48.696;10.066;2022-11-21T02:55:19;3.50;95.10
5134;DHT22;2585;48.696;10.066;2022-11-21T02:57:46;3.50;95.10
5134;DHT22;2585;48.696;10.066;2022-11-21T03:00:13;3.40;95.10
5134;DHT22;2585;48.696;10.066;2022-11-21T03:02:40;3.30;95.00
5134;DHT22;2585;48.696;10.066;2022-11-21T03:05:08;3.20;95.00
5134;DHT22;2585;48.696;10.066;2022-11-21T03:07:35;3.10;94.90
5134;DHT22;2585;48.696;10.066;2022-11-21T03:10:03;3.00;94.90
5134;DHT22;2585;48.696;10.066;2022-11-21T03:12:30;3.00;94.90
5134;DHT22;2585;48.696;10.066;2022-11-21T03:14:57;3.00;94.90
5134;DHT22;2585;48.696;10.066;2022-11-21T03:17:24;3.00;95.00
5134;DHT22;2585;48.696;10.066;2022-11-21T03:19:51;2.90;94.90
5134;DHT22;2585;48.696;10.066;2022-11-21T03:22:17;2.90;94.90
5134;DHT22;2585;48.696;10.066;2022-11-21T03:24:44;2.80;94.90
5134;DHT22;2585;48.696;10.066;2022-11-21T03:27:11;2.80;94.90
5134;DHT22;2585;48.696;10.066;2022-11-21T03:29:38;2.70;94.90
5134;DHT22;2585;48.696;10.066;2022-11-21T03:32:05;2.70;94.90
5134;DHT22;2585;48.696;10.066;2022-11-21T03:34:31;2.70;94.90
5134;DHT22;2585;48.696;10.066;2022-11-21T03:36:58;2.60;94.90
5134;DHT22;2585;48.696;10.066;2022-11-21T03:39:25;2.60;94.90
5134;DHT22;2585;48.696;10.066;2022-11-21T03:41:55;2.60;94.90
5134;DHT22;2585;48.696;10.066;2022-11-21T03:44:22;2.50;94.90
5134;DHT22;2585;48.696;10.066;2022-11-21T03:46:49;2.50;94.90
5134;DHT22;2585;48.696;10.066;2022-11-21T03:49:16;2.50;94.90
5134;DHT22;2585;48.696;10.066;2022-11-21T03:51:43;2.50;94.90
5134;DHT22;2585;48.696;10.066;2022-11-21T03:54:10;2.50;94.90
5134;DHT22;2585;48.696;10.066;2022-11-21T03:56:37;2.60;94.90
5134;DHT22;2585;48.696;10.066;2022-11-21T03:59:07;2.50;94.90
5134;DHT22;2585;48.696;10.066;2022-11-21T04:01:34;2.50;94.90
5134;DHT22;2585;48.696;10.066;2022-11-21T04:04:03;2.70;95.00
5134;DHT22;2585;48.696;10.066;2022-11-21T04:06:30;2.60;95.00
5134;DHT22;2585;48.696;10.066;2022-11-21T04:08:57;2.60;95.00
5134;DHT22;2585;48.696;10.066;2022-11-21T04:11:24;2.60;94.90
5134;DHT22;2585;48.696;10.066;2022-11-21T04:13:51;2.60;94.90
5134;DHT22;2585;48.696;10.066;2022-11-21T04:16:18;2.70;95.00
5134;DHT22;2585;48.696;10.066;2022-11-21T04:18:45;2.60;95.00
5134;DHT22;2585;48.696;10.066;2022-11-21T04:21:12;2.50;94.90
5134;DHT22;2585;48.696;10.066;2022-11-21T04:23:39;2.60;95.00
5134;DHT22;2585;48.696;10.066;2022-11-21T04:26:06;2.60;95.00
5134;DHT22;2585;48.696;10.066;2022-11-21T04:28:32;2.60;95.00
5134;DHT22;2585;48.696;10.066;2022-11-21T04:31:07;2.60;95.00
5134;DHT22;2585;48.696;10.066;2022-11-21T04:33:39;2.70;95.00
5134;DHT22;2585;48.696;10.066;2022-11-21T04:36:07;2.80;95.00
5134;DHT22;2585;48.696;10.066;2022-11-21T04:38:34;2.70;95.00
5134;DHT22;2585;48.696;10.066;2022-11-21T04:41:01;2.70;95.00
5134;DHT22;2585;48.696;10.066;2022-11-21T04:43:28;2.80;95.00
5134;DHT22;2585;48.696;10.066;2022-11-21T04:45:55;2.80;95.00
5134;DHT22;2585;48.696;10.066;2022-11-21T04:48:24;2.80;95.00
5134;DHT22;2585;48.696;10.066;2022-11-21T04:50:51;2.90;95.10
5134;DHT22;2585;48.696;10.066;2022-11-21T04:53:18;2.80;95.00
5134;DHT22;2585;48.696;10.066;2022-11-21T04:55:45;2.80;95.00
5134;DHT22;2585;48.696;10.066;2022-11-21T04:58:12;2.80;95.10
5134;DHT22;2585;48.696;10.066;2022-11-21T05:00:39;2.90;95.10
5134;DHT22;2585;48.696;10.066;2022-11-21T05:03:06;3.00;95.10
5134;DHT22;2585;48.696;10.066;2022-11-21T05:05:33;3.00;95.10
5134;DHT22;2585;48.696;10.066;2022-11-21T05:08:00;3.10;95.20
5134;DHT22;2585;48.696;10.066;2022-11-21T05:10:26;3.10;95.20
5134;DHT22;2585;48.696;10.066;2022-11-21T05:12:58;3.20;95.20
5134;DHT22;2585;48.696;10.066;2022-11-21T05:15:43;3.20;95.20
5134;DHT22;2585;48.696;10.066;2022-11-21T05:18:11;3.30;95.20
5134;DHT22;2585;48.696;10.066;2022-11-21T05:20:38;3.30;95.20
5134;DHT22;2585;48.696;10.066;2022-11-21T05:23:04;3.30;95.20
5134;DHT22;2585;48.696;10.066;2022-11-21T05:25:31;3.30;95.20
5134;DHT22;2585;48.696;10.066;2022-11-21T05:27:58;3.30;95.20
5134;DHT22;2585;48.696;10.066;2022-11-21T05:30:25;3.40;95.20
5134;DHT22;2585;48.696;10.066;2022-11-21T05:32:52;3.40;95.20
5134;DHT22;2585;48.696;10.066;2022-11-21T05:35:19;3.50;95.30
5134;DHT22;2585;48.696;10.066;2022-11-21T05:37:45;3.50;95.30
5134;DHT22;2585;48.696;10.066;2022-11-21T05:40:12;3.50;95.30
5134;DHT22;2585;48.696;10.066;2022-11-21T05:42:41;3.50;95.30
5134;DHT22;2585;48.696;10.066;2022-11-21T05:45:26;3.50;95.30
5134;DHT22;2585;48.696;10.066;2022-11-21T05:47:59;3.60;95.30
5134;DHT22;2585;48.696;10.066;2022-11-21T05:50:26;3.60;95.30
5134;DHT22;2585;48.696;10.066;2022-11-21T05:52:53;3.60;95.30
5134;DHT22;2585;48.696;10.066;2022-11-21T05:55:19;3.60;95.30
5134;DHT22;2585;48.696;10.066;2022-11-21T05:57:46;3.60;95.30
5134;DHT22;2585;48.696;10.066;2022-11-21T06:00:13;3.60;95.30
5134;DHT22;2585;48.696;10.066;2022-11-21T06:02:40;3.60;95.30
5134;DHT22;2585;48.696;10.066;2022-11-21T06:05:25;3.60;95.30
5134;DHT22;2585;48.696;10.066;2022-11-21T06:07:52;3.60;95.30
5134;DHT22;2585;48.696;10.066;2022-11-21T06:10:19;3.60;95.30
5134;DHT22;2585;48.696;10.066;2022-11-21T06:12:46;3.50;95.20
5134;DHT22;2585;48.696;10.066;2022-11-21T06:15:13;3.60;95.30
5134;DHT22;2585;48.696;10.066;2022-11-21T06:17:39;3.60;95.30
5134;DHT22;2585;48.696;10.066;2022-11-21T06:20:07;3.60;95.30
5134;DHT22;2585;48.696;10.066;2022-11-21T06:22:34;3.60;95.30
5134;DHT22;2585;48.696;10.066;2022-11-21T06:25:01;3.60;95.30
5134;DHT22;2585;48.696;10.066;2022-11-21T06:27:28;3.60;95.30
5134;DHT22;2585;48.696;10.066;2022-11-21T06:29:55;3.60;95.20
5134;DHT22;2585;48.696;10.066;2022-11-21T06:32:21;3.60;95.20
5134;DHT22;2585;48.696;10.066;2022-11-21T06:34:48;3.60;95.20
5134;DHT22;2585;48.696;10.066;2022-11-21T06:37:15;3.60;95.20
5134;DHT22;2585;48.696;10.066;2022-11-21T06:39:42;3.60;95.20
5134;DHT22;2585;48.696;10.066;2022-11-21T06:42:09;3.60;95.20
5134;DHT22;2585;48.696;10.066;2022-11-21T06:44:35;3.60;95.20
5134;DHT22;2585;48.696;10.066;2022-11-21T06:47:02;3.50;95.20
5134;DHT22;2585;48.696;10.066;2022-11-21T06:49:29;3.50;95.20
5134;DHT22;2585;48.696;10.066;2022-11-21T06:51:55;3.50;95.20
5134;DHT22;2585;48.696;10.066;2022-11-21T06:54:22;3.50;95.20
5134;DHT22;2585;48.696;10.066;2022-11-21T06:56:51;3.50;95.20
5134;DHT22;2585;48.696;10.066;2022-11-21T06:59:18;3.50;95.20
5134;DHT22;2585;48.696;10.066;2022-11-21T07:01:45;3.50;95.20
5134;DHT22;2585;48.696;10.066;2022-11-21T07:04:12;3.50;95.20
5134;DHT22;2585;48.696;10.066;2022-11-21T07:06:39;3.50;95.20
5134;DHT22;2585;48.696;10.066;2022-11-21T07:09:05;3.50;95.20
5134;DHT22;2585;48.696;10.066;2022-11-21T07:11:52;3.50;95.20
5134;DHT22;2585;48.696;10.066;2022-11-21T07:14:19;3.50;95.20
5134;DHT22;2585;48.696;10.066;2022-11-21T07:16:46;3.50;95.20
5134;DHT22;2585;48.696;10.066;2022-11-21T07:19:12;3.50;95.20
5134;DHT22;2585;48.696;10.066;2022-11-21T07:21:39;3.40;95.20
5134;DHT22;2585;48.696;10.066;2022-11-21T07:24:06;3.50;95.20
5134;DHT22;2585;48.696;10.066;2022-11-21T07:26:33;3.50;95.20
5134;DHT22;2585;48.696;10.066;2022-11-21T07:28:59;3.50;95.20
5134;DHT22;2585;48.696;10.066;2022-11-21T07:31:26;3.50;95.20
5134;DHT22;2585;48.696;10.066;2022-11-21T07:33:53;3.50;95.20
5134;DHT22;2585;48.696;10.066;2022-11-21T07:36:20;3.50;95.20
5134;DHT22;2585;48.696;10.066;2022-11-21T07:38:47;3.50;95.20
5134;DHT22;2585;48.696;10.066;2022-11-21T07:41:13;3.50;95.20
5134;DHT22;2585;48.696;10.066;2022-11-21T07:43:40;3.40;95.10
5134;DHT22;2585;48.696;10.066;2022-11-21T07:46:07;3.50;95.20
5134;DHT22;2585;48.696;10.066;2022-11-21T07:48:34;3.50;95.20
5134;DHT22;2585;48.696;10.066;2022-11-21T07:51:04;3.50;95.20
5134;DHT22;2585;48.696;10.066;2022-11-21T07:53:31;3.60;95.20
5134;DHT22;2585;48.696;10.066;2022-11-21T07:55:58;3.60;95.20
5134;DHT22;2585;48.696;10.066;2022-11-21T07:58:25;3.60;95.20
5134;DHT22;2585;48.696;10.066;2022-11-21T08:00:52;3.60;95.20
5134;DHT22;2585;48.696;10.066;2022-11-21T08:03:19;3.60;95.20
5134;DHT22;2585;48.696;10.066;2022-11-21T08:05:46;3.60;95.20
5134;DHT22;2585;48.696;10.066;2022-11-21T08:08:13;3.70;95.20
5134;DHT22;2585;48.696;10.066;2022-11-21T08:10:44;3.70;95.20
5134;DHT22;2585;48.696;10.066;2022-11-21T08:13:12;3.70;95.20
5134;DHT22;2585;48.696;10.066;2022-11-21T08:15:39;3.80;95.20
5134;DHT22;2585;48.696;10.066;2022-11-21T08:18:10;3.80;95.20
5134;DHT22;2585;48.696;10.066;2022-11-21T08:20:37;3.90;95.30
5134;DHT22;2585;48.696;10.066;2022-11-21T08:23:04;4.00;95.30
5134;DHT22;2585;48.696;10.066;2022-11-21T08:25:39;4.00;95.30
5134;DHT22;2585;48.696;10.066;2022-11-21T08:28:08;4.10;95.30
5134;DHT22;2585;48.696;10.066;2022-11-21T08:30:35;4.10;95.30
5134;DHT22;2585;48.696;10.066;2022-11-21T08:33:02;4.10;95.30
5134;DHT22;2585;48.696;10.066;2022-11-21T08:35:30;4.10;95.30
5134;DHT22;2585;48.696;10.066;2022-11-21T08:37:58;4.10;95.30
5134;DHT22;2585;48.696;10.066;2022-11-21T08:40:26;4.10;95.30
5134;DHT22;2585;48.696;10.066;2022-11-21T08:43:01;4.20;95.30
5134;DHT22;2585;48.696;10.066;2022-11-21T08:45:28;4.20;95.30
5134;DHT22;2585;48.696;10.066;2022-11-21T08:47:56;4.30;95.30
5134;DHT22;2585;48.696;10.066;2022-11-21T08:50:23;4.30;95.30
5134;DHT22;2585;48.696;10.066;2022-11-21T08:52:50;4.30;95.30
5134;DHT22;2585;48.696;10.066;2022-11-21T08:55:18;4.30;95.30
5134;DHT22;2585;48.696;10.066;2022-11-21T08:57:45;4.30;95.30
5134;DHT22;2585;48.696;10.066;2022-11-21T09:00:13;4.40;95.30
5134;DHT22;2585;48.696;10.066;2022-11-21T09:02:40;4.30;95.20
5134;DHT22;2585;48.696;10.066;2022-11-21T09:05:07;4.40;95.20
5134;DHT22;2585;48.696;10.066;2022-11-21T09:07:34;4.40;95.20
5134;DHT22;2585;48.696;10.066;2022-11-21T09:10:02;4.40;95.20
5134;DHT22;2585;48.696;10.066;2022-11-21T09:12:29;4.40;95.20
5134;DHT22;2585;48.696;10.066;2022-11-21T09:14:56;4.50;95.20
5134;DHT22;2585;48.696;10.066;2022-11-21T09:17:42;4.50;95.20
5134;DHT22;2585;48.696;10.066;2022-11-21T09:20:27;4.50;95.20
5134;DHT22;2585;48.696;10.066;2022-11-21T09:22:54;4.50;95.10
5134;DHT22;2585;48.696;10.066;2022-11-21T09:25:21;4.60;95.10
5134;DHT22;2585;48.696;10.066;2022-11-21T09:27:48;4.60;95.00
5134;DHT22;2585;48.696;10.066;2022-11-21T09:30:15;4.60;94.90
5134;DHT22;2585;48.696;10.066;2022-11-21T09:32:42;4.60;94.80
5134;DHT22;2585;48.696;10.066;2022-11-21T09:35:08;4.60;94.90
5134;DHT22;2585;48.696;10.066;2022-11-21T09:37:36;4.60;94.80
5134;DHT22;2585;48.696;10.066;2022-11-21T09:40:04;4.70;94.70
5134;DHT22;2585;48.696;10.066;2022-11-21T09:45:20;4.80;94.90
5134;DHT22;2585;48.696;10.066;2022-11-21T09:47:50;5.10;95.00
5134;DHT22;2585;48.696;10.066;2022-11-21T09:50:31;5.40;94.90
5134;DHT22;2585;48.696;10.066;2022-11-21T09:53:12;5.80;94.60
5134;DHT22;2585;48.696;10.066;2022-11-21T09:56:10;5.70;92.00
5134;DHT22;2585;48.696;10.066;2022-11-21T09:58:43;5.80;90.10
5134;DHT22;2585;48.696;10.066;2022-11-21T10:01:14;5.70;80.70
5134;DHT22;2585;48.696;10.066;2022-11-21T10:03:47;5.70;79.60
5134;DHT22;2585;48.696;10.066;2022-11-21T10:06:23;5.70;81.50
5134;DHT22;2585;48.696;10.066;2022-11-21T10:11:50;5.50;76.80
5134;DHT22;2585;48.696;10.066;2022-11-21T10:26:13;5.40;90.90
5134;DHT22;2585;48.696;10.066;2022-11-21T10:28:58;5.10;85.30
5134;DHT22;2585;48.696;10.066;2022-11-21T10:31:32;5.10;87.20
5134;DHT22;2585;48.696;10.066;2022-11-21T10:34:03;5.00;86.30
5134;DHT22;2585;48.696;10.066;2022-11-21T10:36:36;5.00;88.20
5134;DHT22;2585;48.696;10.066;2022-11-21T10:39:23;4.90;87.00
5134;DHT22;2585;48.696;10.066;2022-11-21T10:44:28;4.80;90.40
5134;DHT22;2585;48.696;10.066;2022-11-21T10:47:18;4.90;91.70
5134;DHT22;2585;48.696;10.066;2022-11-21T10:50:15;4.90;90.90
5134;DHT22;2585;48.696;10.066;2022-11-21T10:52:47;5.40;91.70
5134;DHT22;2585;48.696;10.066;2022-11-21T10:55:16;5.40;86.60
5134;DHT22;2585;48.696;10.066;2022-11-21T10:57:50;5.30;85.60
5134;DHT22;2585;48.696;10.066;2022-11-21T11:05:27;5.30;86.10
5134;DHT22;2585;48.696;10.066;2022-11-21T11:08:24;5.20;85.60
5134;DHT22;2585;48.696;10.066;2022-11-21T11:11:11;5.20;87.20
5134;DHT22;2585;48.696;10.066;2022-11-21T11:13:57;5.70;87.50
5134;DHT22;2585;48.696;10.066;2022-11-21T11:16:26;6.70;69.90
5134;DHT22;2585;48.696;10.066;2022-11-21T11:19:14;7.50;49.60
5134;DHT22;2585;48.696;10.066;2022-11-21T11:21:43;8.10;10.00
5134;DHT22;2585;48.696;10.066;2022-11-21T11:34:52;9.30;1.00
5134;DHT22;2585;48.696;10.066;2022-11-21T11:37:29;9.60;1.00
5134;DHT22;2585;48.696;10.066;2022-11-21T11:46:04;9.50;1.00
5134;DHT22;2585;48.696;10.066;2022-11-21T11:48:57;10.70;1.00
5134;DHT22;2585;48.696;10.066;2022-11-21T11:51:59;11.00;1.00
5134;DHT22;2585;48.696;10.066;2022-11-21T11:54:48;10.90;1.00
5134;DHT22;2585;48.696;10.066;2022-11-21T11:57:18;10.50;1.00
5134;DHT22;2585;48.696;10.066;2022-11-21T12:02:57;9.10;1.00
5134;DHT22;2585;48.696;10.066;2022-11-21T12:05:27;8.40;1.00
5134;DHT22;2585;48.696;10.066;2022-11-21T12:08:12;8.00;1.00
5134;DHT22;2585;48.696;10.066;2022-11-21T12:14:09;7.60;1.00
5134;DHT22;2585;48.696;10.066;2022-11-21T12:16:38;7.60;1.00
5134;DHT22;2585;48.696;10.066;2022-11-21T12:19:12;8.00;1.00
5134;DHT22;2585;48.696;10.066;2022-11-21T12:21:41;8.10;1.00
5134;DHT22;2585;48.696;10.066;2022-11-21T12:24:09;8.10;1.00
5134;DHT22;2585;48.696;10.066;2022-11-21T12:41:36;8.50;1.00
5134;DHT22;2585;48.696;10.066;2022-11-21T12:53:03;7.40;1.00
5134;DHT22;2585;48.696;10.066;2022-11-21T12:56:01;7.40;1.00
5134;DHT22;2585;48.696;10.066;2022-11-21T12:58:37;7.30;1.00
5134;DHT22;2585;48.696;10.066;2022-11-21T13:01:28;7.20;1.00
5134;DHT22;2585;48.696;10.066;2022-11-21T13:04:03;7.20;1.00
5134;DHT22;2585;48.696;10.066;2022-11-21T13:06:37;7.10;1.00
5134;DHT22;2585;48.696;10.066;2022-11-21T13:09:08;7.10;1.00
5134;DHT22;2585;48.696;10.066;2022-11-21T13:11:49;7.00;1.00
5134;DHT22;2585;48.696;10.066;2022-11-21T13:14:30;7.00;1.00
5134;DHT22;2585;48.696;10.066;2022-11-21T13:19:53;6.80;1.00
5134;DHT22;2585;48.696;10.066;2022-11-21T13:22:49;6.80;1.00
5134;DHT22;2585;48.696;10.066;2022-11-21T13:30:48;7.10;1.00
5134;DHT22;2585;48.696;10.066;2022-11-21T13:36:10;7.70;1.00
5134;DHT22;2585;48.696;10.066;2022-11-21T13:49:52;9.30;1.00
5134;DHT22;2585;48.696;10.066;2022-11-21T14:08:20;8.60;1.00
5134;DHT22;2585;48.696;10.066;2022-11-21T14:10:49;8.40;1.00
5134;DHT22;2585;48.696;10.066;2022-11-21T14:18:58;8.20;1.00
5134;DHT22;2585;48.696;10.066;2022-11-21T14:21:27;8.00;1.00
5134;DHT22;2585;48.696;10.066;2022-11-21T14:24:00;7.90;1.00
5134;DHT22;2585;48.696;10.066;2022-11-21T14:26:39;7.80;1.00
5134;DHT22;2585;48.696;10.066;2022-11-21T14:29:25;7.90;1.00
5134;DHT22;2585;48.696;10.066;2022-11-21T14:31:53;7.80;1.00
5134;DHT22;2585;48.696;10.066;2022-11-21T14:34:28;7.80;1.00
5134;DHT22;2585;48.696;10.066;2022-11-21T14:37:02;7.70;1.00
5134;DHT22;2585;48.696;10.066;2022-11-21T14:39:32;7.50;1.00
5134;DHT22;2585;48.696;10.066;2022-11-21T14:42:19;7.40;1.00
5134;DHT22;2585;48.696;10.066;2022-11-21T14:44:45;7.30;1.00
5134;DHT22;2585;48.696;10.066;2022-11-21T14:47:14;7.20;1.00
5134;DHT22;2585;48.696;10.066;2022-11-21T14:49:52;7.20;1.00
5134;DHT22;2585;48.696;10.066;2022-11-21T14:52:26;7.10;1.00
5134;DHT22;2585;48.696;10.066;2022-11-21T14:54:59;6.90;1.00
5134;DHT22;2585;48.696;10.066;2022-11-21T14:57:46;6.70;1.00
5134;DHT22;2585;48.696;10.066;2022-11-21T15:00:20;6.60;1.00
5134;DHT22;2585;48.696;10.066;2022-11-21T15:03:21;6.50;1.00
5134;DHT22;2585;48.696;10.066;2022-11-21T15:05:56;6.30;1.00
5134;DHT22;2585;48.696;10.066;2022-11-21T15:08:43;6.10;15.30
5134;DHT22;2585;48.696;10.066;2022-11-21T15:14:18;5.70;22.20
5134;DHT22;2585;48.696;10.066;2022-11-21T15:16:48;5.60;24.40
5134;DHT22;2585;48.696;10.066;2022-11-21T15:19:24;5.50;26.50
5134;DHT22;2585;48.696;10.066;2022-11-21T15:21:55;5.40;27.10
5134;DHT22;2585;48.696;10.066;2022-11-21T15:24:38;5.20;28.30
5134;DHT22;2585;48.696;10.066;2022-11-21T15:32:57;4.80;29.30
5134;DHT22;2585;48.696;10.066;2022-11-21T15:43:42;4.50;59.60
5134;DHT22;2585;48.696;10.066;2022-11-21T15:48:55;4.30;61.40
5134;DHT22;2585;48.696;10.066;2022-11-21T15:51:31;4.20;61.10
5134;DHT22;2585;48.696;10.066;2022-11-21T15:54:20;4.10;61.60
5134;DHT22;2585;48.696;10.066;2022-11-21T15:56:47;4.00;60.40
5134;DHT22;2585;48.696;10.066;2022-11-21T15:59:14;3.90;57.20
5134;DHT22;2585;48.696;10.066;2022-11-21T16:01:41;3.80;60.70
5134;DHT22;2585;48.696;10.066;2022-11-21T16:04:10;3.80;62.00
5134;DHT22;2585;48.696;10.066;2022-11-21T16:06:37;3.60;62.20
5134;DHT22;2585;48.696;10.066;2022-11-21T16:09:04;3.50;63.20
5134;DHT22;2585;48.696;10.066;2022-11-21T16:11:33;3.60;67.50
5134;DHT22;2585;48.696;10.066;2022-11-21T16:14:04;3.50;71.30
5134;DHT22;2585;48.696;10.066;2022-11-21T16:16:36;3.30;69.90
5134;DHT22;2585;48.696;10.066;2022-11-21T16:19:10;3.20;67.70
5134;DHT22;2585;48.696;10.066;2022-11-21T16:21:37;3.20;69.40
5134;DHT22;2585;48.696;10.066;2022-11-21T16:24:04;3.20;70.60
5134;DHT22;2585;48.696;10.066;2022-11-21T16:26:31;3.10;68.60
5134;DHT22;2585;48.696;10.066;2022-11-21T16:28:59;3.00;70.50
5134;DHT22;2585;48.696;10.066;2022-11-21T16:31:28;2.90;71.40
5134;DHT22;2585;48.696;10.066;2022-11-21T16:33:56;2.90;72.30
5134;DHT22;2585;48.696;10.066;2022-11-21T16:36:26;2.90;75.20
5134;DHT22;2585;48.696;10.066;2022-11-21T16:38:53;2.90;81.20
5134;DHT22;2585;48.696;10.066;2022-11-21T16:41:21;2.80;80.60
5134;DHT22;2585;48.696;10.066;2022-11-21T16:43:49;2.60;79.00
5134;DHT22;2585;48.696;10.066;2022-11-21T16:46:17;2.60;82.40
5134;DHT22;2585;48.696;10.066;2022-11-21T16:48:45;2.60;84.70
5134;DHT22;2585;48.696;10.066;2022-11-21T16:51:13;2.60;86.00
5134;DHT22;2585;48.696;10.066;2022-11-21T16:53:41;2.50;84.80
5134;DHT22;2585;48.696;10.066;2022-11-21T16:56:08;2.40;83.50
5134;DHT22;2585;48.696;10.066;2022-11-21T16:58:36;2.40;84.70
5134;DHT22;2585;48.696;10.066;2022-11-21T17:01:10;2.30;84.00
5134;DHT22;2585;48.696;10.066;2022-11-21T17:03:39;2.30;85.80
5134;DHT22;2585;48.696;10.066;2022-11-21T17:06:06;2.20;84.90
5134;DHT22;2585;48.696;10.066;2022-11-21T17:08:34;2.10;83.50
5134;DHT22;2585;48.696;10.066;2022-11-21T17:13:37;2.00;86.70
5134;DHT22;2585;48.696;10.066;2022-11-21T17:16:09;1.90;86.20
5134;DHT22;2585;48.696;10.066;2022-11-21T17:18:37;1.90;88.30
5134;DHT22;2585;48.696;10.066;2022-11-21T17:21:04;1.90;90.60
5134;DHT22;2585;48.696;10.066;2022-11-21T17:23:33;1.90;90.90
5134;DHT22;2585;48.696;10.066;2022-11-21T17:26:04;1.90;91.00
5134;DHT22;2585;48.696;10.066;2022-11-21T17:28:32;1.80;90.80
5134;DHT22;2585;48.696;10.066;2022-11-21T17:31:01;1.80;91.00
5134;DHT22;2585;48.696;10.066;2022-11-21T17:33:30;1.70;90.90
5134;DHT22;2585;48.696;10.066;2022-11-21T17:35:57;1.80;91.40
5134;DHT22;2585;48.696;10.066;2022-11-21T17:38:24;1.80;91.50
5134;DHT22;2585;48.696;10.066;2022-11-21T17:41:00;1.60;91.00
5134;DHT22;2585;48.696;10.066;2022-11-21T17:43:27;1.70;91.60
5134;DHT22;2585;48.696;10.066;2022-11-21T17:46:11;1.70;91.70
5134;DHT22;2585;48.696;10.066;2022-11-21T17:48:38;1.70;91.90
5134;DHT22;2585;48.696;10.066;2022-11-21T17:51:11;1.50;91.40
5134;DHT22;2585;48.696;10.066;2022-11-21T17:53:40;1.50;91.60
5134;DHT22;2585;48.696;10.066;2022-11-21T17:56:09;1.50;91.90
5134;DHT22;2585;48.696;10.066;2022-11-21T17:58:37;1.60;92.50
5134;DHT22;2585;48.696;10.066;2022-11-21T18:01:05;1.50;92.50
5134;DHT22;2585;48.696;10.066;2022-11-21T18:03:32;1.60;92.90
5134;DHT22;2585;48.696;10.066;2022-11-21T18:06:07;1.50;93.00
5134;DHT22;2585;48.696;10.066;2022-11-21T18:08:37;1.50;93.10
5134;DHT22;2585;48.696;10.066;2022-11-21T18:11:07;1.50;93.30
5134;DHT22;2585;48.696;10.066;2022-11-21T18:13:35;1.60;93.50
5134;DHT22;2585;48.696;10.066;2022-11-21T18:16:10;1.50;93.50
5134;DHT22;2585;48.696;10.066;2022-11-21T18:18:38;1.50;93.60
5134;DHT22;2585;48.696;10.066;2022-11-21T18:21:10;1.50;93.60
5134;DHT22;2585;48.696;10.066;2022-11-21T18:23:37;1.40;93.40
5134;DHT22;2585;48.696;10.066;2022-11-21T18:26:11;1.30;93.30
5134;DHT22;2585;48.696;10.066;2022-11-21T18:28:39;1.30;93.20
5134;DHT22;2585;48.696;10.066;2022-11-21T18:31:08;1.30;93.30
5134;DHT22;2585;48.696;10.066;2022-11-21T18:33:36;1.30;93.40
5134;DHT22;2585;48.696;10.066;2022-11-21T18:36:04;1.30;93.50
5134;DHT22;2585;48.696;10.066;2022-11-21T18:38:39;1.30;93.50
5134;DHT22;2585;48.696;10.066;2022-11-21T18:41:25;1.20;93.50
5134;DHT22;2585;48.696;10.066;2022-11-21T18:43:54;1.20;93.50
5134;DHT22;2585;48.696;10.066;2022-11-21T18:46:22;1.20;93.60
5134;DHT22;2585;48.696;10.066;2022-11-21T18:48:50;1.30;93.80
5134;DHT22;2585;48.696;10.066;2022-11-21T18:51:34;1.30;93.90
5134;DHT22;2585;48.696;10.066;2022-11-21T18:54:05;1.30;93.90